Time;durP1;ratioP1;P1;durP2;ratioP2;P2;SDS_P1;SDS_P2;PMS_P1;PMS_P2;Temp;Humidity;BMP_temperature;BMP_pressure;BME280_temperature;BME280_humidity;BME280_pressure;Samples;Min_cycle;Max_cycle;Signal;HPM_P1;HPM_P2
2021/05/03 00:01:53;;;;;;;4.15;3.25;;;6.80;99.90;;;;;;5092815;28;20478;-40
2021/05/03 00:04:19;;;;;;;4.57;3.60;;;6.80;99.90;;;;;;5092670;28;20020;-39
2021/05/03 00:06:45;;;;;;;5.38;3.28;;;6.90;99.90;;;;;;5092727;28;20471;-40
2021/05/03 00:09:10;;;;;;;5.65;3.30;;;6.90;99.90;;;;;;5086248;28;20044;-40
2021/05/03 00:11:36;;;;;;;6.13;3.75;;;6.90;99.90;;;;;;5072348;28;20066;-41
2021/05/03 00:14:02;;;;;;;4.60;3.67;;;6.90;99.90;;;;;;5071586;28;20025;-40
2021/05/03 00:16:28;;;;;;;5.00;2.92;;;6.90;99.90;;;;;;5072357;28;20028;-39
2021/05/03 00:18:53;;;;;;;5.32;3.75;;;6.90;99.90;;;;;;5071932;28;20035;-40
2021/05/03 00:21:19;;;;;;;6.97;2.97;;;6.90;99.90;;;;;;5072187;28;20099;-40
2021/05/03 00:23:45;;;;;;;4.95;2.80;;;6.90;99.90;;;;;;5072314;28;20047;-40
2021/05/03 00:26:11;;;;;;;4.70;3.30;;;6.90;99.90;;;;;;5055686;28;20028;-41
2021/05/03 00:28:38;;;;;;;3.78;2.80;;;6.90;99.90;;;;;;5075552;28;20024;-41
2021/05/03 00:31:04;;;;;;;3.25;2.53;;;6.90;99.90;;;;;;5076220;28;20024;-42
2021/05/03 00:33:29;;;;;;;2.78;2.20;;;6.90;99.90;;;;;;5076217;28;20059;-40
2021/05/03 00:35:55;;;;;;;4.18;2.28;;;6.90;99.90;;;;;;5076328;28;20068;-40
2021/05/03 00:38:20;;;;;;;5.35;2.47;;;6.90;99.90;;;;;;5076082;28;20411;-40
2021/05/03 00:40:46;;;;;;;3.25;2.72;;;6.90;99.90;;;;;;5076211;28;20029;-40
2021/05/03 00:43:17;;;;;;;5.80;2.95;;;6.90;99.90;;;;;;5075258;28;20539;-39
2021/05/03 00:45:43;;;;;;;4.25;2.45;;;6.80;99.90;;;;;;5076165;28;20016;-39
2021/05/03 00:48:08;;;;;;;3.45;2.50;;;6.80;99.90;;;;;;5075828;28;20495;-39
2021/05/03 00:50:34;;;;;;;4.22;2.60;;;6.80;99.90;;;;;;5077286;28;20032;-39
2021/05/03 00:52:59;;;;;;;4.40;2.47;;;6.80;99.90;;;;;;5096423;28;20035;-40
2021/05/03 00:55:27;;;;;;;6.18;3.05;;;6.80;99.90;;;;;;5096024;28;20032;-39
2021/05/03 00:57:52;;;;;;;2.58;2.08;;;6.80;99.90;;;;;;5095334;28;20031;-40
2021/05/03 01:00:18;;;;;;;4.93;2.38;;;6.80;99.90;;;;;;5096077;28;20046;-42
2021/05/03 01:02:44;;;;;;;3.15;1.88;;;6.80;99.90;;;;;;5096156;28;20027;-41
2021/05/03 01:05:10;;;;;;;6.32;2.53;;;6.80;99.90;;;;;;5096080;28;20051;-39
2021/05/03 01:07:36;;;;;;;5.03;2.30;;;6.80;99.90;;;;;;5095838;28;20416;-40
2021/05/03 01:10:02;;;;;;;4.60;2.50;;;6.80;99.90;;;;;;5082241;28;20027;-40
2021/05/03 01:12:28;;;;;;;3.08;2.00;;;6.80;99.90;;;;;;5075389;28;20039;-40
2021/05/03 01:14:53;;;;;;;3.63;2.13;;;6.80;99.90;;;;;;5075182;28;20033;-40
2021/05/03 01:17:29;;;;;;;4.78;2.53;;;6.80;99.90;;;;;;5075286;28;20024;-39
2021/05/03 01:19:54;;;;;;;5.18;2.95;;;6.80;99.90;;;;;;5075667;28;20037;-41
2021/05/03 01:22:20;;;;;;;3.13;1.90;;;6.80;99.90;;;;;;5075298;28;20420;-40
2021/05/03 01:24:45;;;;;;;2.92;1.98;;;6.80;99.90;;;;;;5075328;28;20039;-41
2021/05/03 01:27:11;;;;;;;2.47;2.10;;;6.80;99.90;;;;;;5057343;28;20028;-39
2021/05/03 01:29:36;;;;;;;4.50;2.38;;;6.70;99.90;;;;;;5074327;28;20468;-40
2021/05/03 01:32:02;;;;;;;5.00;2.65;;;6.70;99.90;;;;;;5075105;28;20044;-39
2021/05/03 01:34:27;;;;;;;3.78;3.10;;;6.70;99.90;;;;;;5075247;28;20032;-39
2021/05/03 01:36:53;;;;;;;5.40;2.47;;;6.70;99.90;;;;;;5074680;28;20041;-39
2021/05/03 01:39:18;;;;;;;5.00;2.30;;;6.60;99.90;;;;;;5074383;28;20402;-42
2021/05/03 01:41:44;;;;;;;4.70;2.20;;;6.60;99.90;;;;;;5074966;28;20106;-39
2021/05/03 01:44:11;;;;;;;3.38;2.30;;;6.60;99.90;;;;;;5074253;28;20055;-40
2021/05/03 01:46:38;;;;;;;3.33;2.30;;;6.60;99.90;;;;;;5074647;28;20059;-40
2021/05/03 01:49:06;;;;;;;3.33;2.17;;;6.60;99.90;;;;;;5075070;28;20025;-40
2021/05/03 01:51:32;;;;;;;5.85;2.70;;;6.50;99.90;;;;;;5084151;28;20020;-41
2021/05/03 01:53:58;;;;;;;4.88;2.38;;;6.50;99.90;;;;;;5095199;28;20024;-41
2021/05/03 01:56:26;;;;;;;4.15;2.63;;;6.50;99.90;;;;;;5094865;28;20028;-40
2021/05/03 01:58:52;;;;;;;4.20;2.13;;;6.50;99.90;;;;;;5093974;28;20050;-39
2021/05/03 02:01:18;;;;;;;4.72;2.55;;;6.40;99.90;;;;;;5094732;28;20065;-41
2021/05/03 02:03:43;;;;;;;4.32;2.63;;;6.40;99.90;;;;;;5095029;28;20032;-41
2021/05/03 02:06:12;;;;;;;3.88;2.08;;;6.40;99.90;;;;;;5094831;28;20024;-40
2021/05/03 02:08:38;;;;;;;2.13;1.85;;;6.40;99.90;;;;;;5092962;28;20035;-41
2021/05/03 02:11:03;;;;;;;3.97;2.10;;;6.40;99.90;;;;;;5074513;28;20475;-40
2021/05/03 02:13:30;;;;;;;3.90;2.30;;;6.40;99.90;;;;;;5073425;28;20447;-40
2021/05/03 02:15:55;;;;;;;3.95;1.70;;;6.40;99.90;;;;;;5074406;28;20020;-40
2021/05/03 02:18:21;;;;;;;3.25;1.75;;;6.40;99.90;;;;;;5074399;28;20024;-40
2021/05/03 02:20:47;;;;;;;4.13;2.60;;;6.30;99.90;;;;;;5074180;28;20029;-39
2021/05/03 02:23:13;;;;;;;5.28;2.28;;;6.40;99.90;;;;;;5074288;28;20025;-40
2021/05/03 02:25:39;;;;;;;2.55;1.50;;;6.40;99.90;;;;;;5074052;28;20391;-44
2021/05/03 02:28:04;;;;;;;5.32;2.53;;;6.40;99.90;;;;;;5073270;28;20032;-39
2021/05/03 02:30:30;;;;;;;3.90;2.20;;;6.40;99.90;;;;;;5074084;28;20077;-39
2021/05/03 02:32:56;;;;;;;4.53;2.30;;;6.40;99.90;;;;;;5074424;28;20527;-40
2021/05/03 02:35:24;;;;;;;3.47;1.80;;;6.40;99.90;;;;;;5074120;28;20040;-40
2021/05/03 02:37:54;;;;;;;2.13;1.52;;;6.40;99.90;;;;;;5073899;28;20391;-39
2021/05/03 02:40:20;;;;;;;2.10;1.73;;;6.30;99.90;;;;;;5074106;28;20027;-41
2021/05/03 02:42:49;;;;;;;7.80;2.53;;;6.30;99.90;;;;;;5072669;28;20119;-40
2021/05/03 02:45:16;;;;;;;4.18;2.20;;;6.30;99.90;;;;;;5074028;28;20048;-39
2021/05/03 02:47:42;;;;;;;3.67;2.25;;;6.30;99.90;;;;;;5073554;28;20063;-41
2021/05/03 02:50:09;;;;;;;4.97;2.22;;;6.30;99.90;;;;;;5073758;28;20020;-39
2021/05/03 02:52:35;;;;;;;5.60;2.45;;;6.30;99.90;;;;;;5091707;28;20024;-40
2021/05/03 02:55:01;;;;;;;5.45;2.55;;;6.30;99.90;;;;;;5093952;28;20024;-40
2021/05/03 02:57:26;;;;;;;7.97;2.75;;;6.30;99.90;;;;;;5093129;28;20050;-40
2021/05/03 02:59:52;;;;;;;5.10;2.40;;;6.30;99.90;;;;;;5093563;28;20475;-40
2021/05/03 03:02:17;;;;;;;5.88;2.83;;;6.30;99.90;;;;;;5093756;28;20024;-39
2021/05/03 03:04:43;;;;;;;4.20;2.40;;;6.30;99.90;;;;;;5093819;28;20360;-40
2021/05/03 03:07:09;;;;;;;3.05;2.67;;;6.30;99.90;;;;;;5093717;28;20052;-39
2021/05/03 03:09:34;;;;;;;7.00;2.80;;;6.30;99.90;;;;;;5083663;28;20103;-40
2021/05/03 03:12:00;;;;;;;5.60;2.30;;;6.30;99.90;;;;;;5072928;28;20028;-40
2021/05/03 03:14:26;;;;;;;3.25;2.47;;;6.30;99.90;;;;;;5072369;28;20487;-40
2021/05/03 03:16:52;;;;;;;5.75;3.17;;;6.30;99.90;;;;;;5073278;28;20263;-39
2021/05/03 03:19:18;;;;;;;4.00;3.30;;;6.30;99.90;;;;;;5073234;28;20116;-39
2021/05/03 03:21:43;;;;;;;4.70;2.65;;;6.30;99.90;;;;;;5055179;28;20052;-40
2021/05/03 03:24:09;;;;;;;3.95;2.88;;;6.30;99.90;;;;;;5073177;28;20035;-39
2021/05/03 03:26:35;;;;;;;5.70;2.35;;;6.30;99.90;;;;;;5072831;28;20546;-40
2021/05/03 03:29:00;;;;;;;5.72;2.72;;;6.20;99.90;;;;;;5072007;28;20044;-39
2021/05/03 03:31:26;;;;;;;5.00;3.03;;;6.20;99.90;;;;;;5072944;28;20040;-39
2021/05/03 03:33:51;;;;;;;3.78;2.85;;;6.20;99.90;;;;;;5073022;28;20083;-39
2021/05/03 03:36:17;;;;;;;4.93;2.90;;;6.20;99.90;;;;;;5072724;28;20103;-39
2021/05/03 03:38:42;;;;;;;6.45;2.58;;;6.10;99.90;;;;;;5072726;28;20024;-40
2021/05/03 03:41:08;;;;;;;6.10;2.40;;;6.10;99.90;;;;;;5072714;28;20025;-41
2021/05/03 03:43:34;;;;;;;4.45;2.50;;;6.20;99.90;;;;;;5071755;28;20020;-41
2021/05/03 03:45:59;;;;;;;4.47;2.72;;;6.20;99.90;;;;;;5072781;28;20537;-40
2021/05/03 03:48:25;;;;;;;5.43;3.42;;;6.20;99.90;;;;;;5072525;28;20060;-40
2021/05/03 03:50:50;;;;;;;3.90;2.30;;;6.10;99.90;;;;;;5076461;28;20039;-40
2021/05/03 03:53:16;;;;;;;4.72;2.78;;;6.10;99.90;;;;;;5092862;28;20028;-41
2021/05/03 03:55:42;;;;;;;4.20;2.40;;;6.10;99.90;;;;;;5092867;28;20110;-41
2021/05/03 03:58:08;;;;;;;3.80;3.30;;;6.10;99.90;;;;;;5091684;28;20073;-39
2021/05/03 04:00:33;;;;;;;4.70;2.90;;;6.10;99.90;;;;;;5092261;28;20023;-39
2021/05/03 04:03:00;;;;;;;3.55;2.75;;;6.00;99.90;;;;;;5092586;28;20016;-40
2021/05/03 04:26:09;;;;;;;5.95;3.05;;;5.90;99.90;;;;;;5072414;28;20024;-41
2021/05/03 04:28:34;;;;;;;4.15;2.70;;;6.00;99.90;;;;;;5070812;28;20020;-40
2021/05/03 04:31:00;;;;;;;3.75;2.45;;;6.10;99.90;;;;;;5054093;28;20032;-39
2021/05/03 04:33:25;;;;;;;9.70;2.47;;;6.30;99.90;;;;;;5071896;28;20075;-39
2021/05/03 04:35:51;;;;;;;3.92;2.45;;;6.40;99.90;;;;;;5072010;28;20036;-40
2021/05/03 04:38:16;;;;;;;5.97;2.30;;;6.60;99.90;;;;;;5072087;28;20067;-40
2021/05/03 04:40:45;;;;;;;3.30;2.58;;;6.70;99.90;;;;;;5072211;28;20056;-39
2021/05/03 04:43:11;;;;;;;3.78;2.05;;;6.80;99.90;;;;;;5070931;28;20491;-39
2021/05/03 04:45:36;;;;;;;4.47;2.42;;;6.80;99.90;;;;;;5072042;28;20025;-40
2021/05/03 04:48:02;;;;;;;5.60;2.05;;;6.80;99.90;;;;;;5071786;28;20078;-42
2021/05/03 04:50:27;;;;;;;2.05;1.80;;;6.80;99.90;;;;;;5072739;28;20047;-40
2021/05/03 04:52:53;;;;;;;4.65;2.28;;;6.80;99.90;;;;;;5092145;28;20028;-40
2021/05/03 04:55:19;;;;;;;3.13;2.50;;;6.80;99.90;;;;;;5092367;28;20103;-41
2021/05/03 04:57:44;;;;;;;7.00;2.38;;;6.70;99.90;;;;;;5090958;28;20123;-43
2021/05/03 05:00:10;;;;;;;4.68;2.15;;;6.70;99.90;;;;;;5092214;28;20111;-41
2021/05/03 05:02:36;;;;;;;4.13;2.28;;;6.70;99.90;;;;;;5091917;28;20417;-40
2021/05/03 05:05:01;;;;;;;4.13;2.00;;;6.70;99.90;;;;;;5063770;28;20042;-40
2021/05/03 05:07:28;;;;;;;4.18;2.10;;;6.80;99.90;;;;;;5071724;28;20047;-40
2021/05/03 05:09:56;;;;;;;2.65;2.22;;;7.00;99.90;;;;;;5059470;28;20389;-40
2021/05/03 05:12:21;;;;;;;6.75;2.67;;;7.10;99.90;;;;;;5053101;28;20499;-40
2021/05/03 05:14:47;;;;;;;6.28;2.15;;;7.20;99.90;;;;;;5054698;28;20040;-40
2021/05/03 05:17:12;;;;;;;4.47;2.70;;;7.40;99.90;;;;;;5055337;28;20025;-40
2021/05/03 05:19:38;;;;;;;4.38;2.20;;;7.50;99.90;;;;;;5055498;28;20025;-40
2021/05/03 05:22:04;;;;;;;4.13;2.33;;;7.60;99.90;;;;;;5055459;28;20032;-39
2021/05/03 05:24:30;;;;;;;5.22;2.35;;;7.70;99.90;;;;;;5055617;28;20031;-39
2021/05/03 05:26:56;;;;;;;3.13;1.90;;;7.80;99.90;;;;;;5055249;28;20025;-40
2021/05/03 05:29:24;;;;;;;4.78;2.13;;;7.90;99.90;;;;;;5054124;28;20033;-40
2021/05/03 05:31:51;;;;;;;4.90;2.30;;;8.00;99.90;;;;;;5054742;28;20487;-40
2021/05/03 05:34:16;;;;;;;3.53;2.10;;;8.00;99.90;;;;;;5055376;28;20059;-40
2021/05/03 05:36:42;;;;;;;5.28;2.67;;;8.10;99.90;;;;;;5055304;28;20473;-39
2021/05/03 05:39:08;;;;;;;7.97;2.05;;;8.30;99.90;;;;;;5055217;28;20036;-39
2021/05/03 05:41:33;;;;;;;2.83;1.77;;;8.70;99.90;;;;;;5055226;28;20462;-41
2021/05/03 05:43:59;;;;;;;4.65;2.10;;;9.20;99.90;;;;;;5053589;28;20075;-40
2021/05/03 05:46:25;;;;;;;8.45;2.22;;;9.80;99.90;;;;;;5054712;28;20055;-41
2021/05/03 05:48:50;;;;;;;3.33;2.50;;;10.60;99.20;;;;;;5054772;28;20029;-40
2021/05/03 05:51:15;;;;;;;5.53;2.53;;;11.40;94.70;;;;;;5069380;28;20024;-41
2021/05/03 05:53:41;;;;;;;4.60;1.77;;;11.50;93.80;;;;;;5095044;28;20040;-40
2021/05/03 05:56:07;;;;;;;3.92;2.03;;;11.50;93.50;;;;;;5095178;28;20126;-40
2021/05/03 05:58:33;;;;;;;3.78;2.03;;;11.70;93.10;;;;;;5093697;28;20101;-40
2021/05/03 06:01:00;;;;;;;3.63;2.25;;;12.00;92.70;;;;;;5094987;28;20040;-40
2021/05/03 06:03:26;;;;;;;3.17;2.13;;;11.90;90.50;;;;;;5094880;28;20020;-44
2021/05/03 06:05:52;;;;;;;5.68;2.25;;;12.00;90.60;;;;;;5094960;28;20039;-40
2021/05/03 06:08:17;;;;;;;6.20;1.98;;;12.00;90.80;;;;;;5094750;28;20028;-40
2021/05/03 06:10:44;;;;;;;3.88;2.10;;;11.90;90.20;;;;;;5076077;28;20535;-41
2021/05/03 06:13:09;;;;;;;4.45;2.10;;;11.90;90.60;;;;;;5073535;28;20028;-46
2021/05/03 06:15:35;;;;;;;3.58;1.95;;;11.80;89.30;;;;;;5074298;28;20115;-44
2021/05/03 06:18:00;;;;;;;5.50;1.77;;;11.70;88.90;;;;;;5074199;28;20484;-42
2021/05/03 06:20:26;;;;;;;2.97;1.65;;;11.70;88.30;;;;;;5074530;28;20082;-45
2021/05/03 06:23:06;;;;;;;3.85;1.75;;;11.90;88.00;;;;;;5074274;28;20020;-44
2021/05/03 06:25:32;;;;;;;4.72;1.70;;;12.30;85.90;;;;;;5074143;28;20399;-46
2021/05/03 06:27:58;;;;;;;4.78;1.80;;;13.10;84.30;;;;;;5073161;28;20024;-44
2021/05/03 06:30:25;;;;;;;3.05;1.67;;;14.10;81.90;;;;;;5074175;28;20052;-42
2021/05/03 06:32:51;;;;;;;2.80;1.52;;;15.60;79.90;;;;;;5074015;28;20021;-44
2021/05/03 06:35:17;;;;;;;2.90;1.63;;;17.10;75.50;;;;;;5074229;28;20423;-42
2021/05/03 06:37:43;;;;;;;4.03;1.35;;;18.80;71.50;;;;;;5074230;28;20066;-45
2021/05/03 06:40:09;;;;;;;2.70;1.40;;;19.20;69.90;;;;;;5074036;28;20024;-43
2021/05/03 06:42:35;;;;;;;2.65;1.33;;;18.50;70.20;;;;;;5072880;28;20025;-43
2021/05/03 06:45:00;;;;;;;2.75;1.42;;;17.50;71.60;;;;;;5074026;28;20035;-43
2021/05/03 06:47:27;;;;;;;3.30;1.30;;;16.60;72.50;;;;;;5073717;28;20554;-46
2021/05/03 06:49:53;;;;;;;2.05;1.20;;;15.80;73.40;;;;;;5073834;28;20029;-44
2021/05/03 06:52:18;;;;;;;2.08;1.52;;;15.30;73.50;;;;;;5089857;28;20043;-42
2021/05/03 06:54:44;;;;;;;2.50;1.48;;;15.00;73.90;;;;;;5094036;28;20027;-44
2021/05/03 06:57:09;;;;;;;2.65;1.90;;;14.90;74.30;;;;;;5093932;28;20038;-43
2021/05/03 06:59:35;;;;;;;2.72;1.52;;;16.30;72.20;;;;;;5092766;28;20113;-45
2021/05/03 07:02:01;;;;;;;4.55;1.30;;;17.80;69.00;;;;;;5093787;28;20138;-43
2021/05/03 07:04:26;;;;;;;3.13;1.20;;;19.30;66.50;;;;;;5093780;28;20378;-42
2021/05/03 07:06:52;;;;;;;1.30;1.20;;;19.30;65.50;;;;;;5093841;28;20051;-45
2021/05/03 07:09:17;;;;;;;2.05;1.48;;;19.10;66.00;;;;;;5086276;28;20081;-46
2021/05/03 07:11:45;;;;;;;3.40;1.48;;;18.60;65.90;;;;;;5073531;28;20097;-43
2021/05/03 07:14:10;;;;;;;1.90;1.33;;;18.20;66.60;;;;;;5054527;28;20024;-44
2021/05/03 07:16:36;;;;;;;3.72;1.33;;;17.50;67.20;;;;;;5073449;28;20395;-49
2021/05/03 07:19:02;;;;;;;1.95;0.98;;;17.60;67.00;;;;;;5072882;28;20033;-43
2021/05/03 07:21:29;;;;;;;2.38;1.70;;;17.20;66.60;;;;;;5073332;28;20471;-42
2021/05/03 07:23:54;;;;;;;1.80;1.13;;;16.60;66.40;;;;;;5073049;28;20082;-44
2021/05/03 07:26:20;;;;;;;4.25;1.48;;;16.10;66.90;;;;;;5073284;28;20029;-42
2021/05/03 07:28:46;;;;;;;8.35;1.52;;;16.50;66.40;;;;;;5072016;28;20031;-47
2021/05/03 07:31:11;;;;;;;4.22;1.40;;;17.20;65.30;;;;;;5055178;28;20024;-42
2021/05/03 07:33:37;;;;;;;3.58;1.20;;;17.60;64.20;;;;;;5055028;28;20464;-44
2021/05/03 07:36:03;;;;;;;1.33;1.13;;;18.20;62.50;;;;;;5072214;28;20040;-50
2021/05/03 07:38:29;;;;;;;4.15;1.65;;;18.10;61.90;;;;;;5072955;28;20086;-43
2021/05/03 07:40:54;;;;;;;2.85;0.90;;;17.30;62.50;;;;;;5072984;28;20021;-41
2021/05/03 07:43:21;;;;;;;1.67;1.15;;;16.60;63.40;;;;;;5071661;28;20032;-42
2021/05/03 07:45:47;;;;;;;1.77;1.13;;;16.30;63.90;;;;;;5072940;28;20043;-43
2021/05/03 07:48:12;;;;;;;2.63;0.95;;;15.90;64.10;;;;;;5072358;28;20056;-42
2021/05/03 07:50:38;;;;;;;2.33;1.08;;;15.50;64.30;;;;;;5074879;28;20025;-45
2021/05/03 07:53:10;;;;;;;1.83;1.05;;;15.20;65.10;;;;;;5092909;28;20043;-42
2021/05/03 07:55:37;;;;;;;2.47;1.15;;;15.70;62.00;;;;;;5093013;28;20077;-42
2021/05/03 07:58:03;;;;;;;1.60;1.20;;;15.80;63.00;;;;;;5091600;28;20024;-41
2021/05/03 08:00:29;;;;;;;0.98;0.82;;;16.00;63.30;;;;;;5092955;28;20035;-42
2021/05/03 08:02:56;;;;;;;5.90;1.00;;;17.20;61.70;;;;;;5092718;28;20023;-44
2021/05/03 08:05:22;;;;;;;7.78;1.27;;;18.70;59.90;;;;;;5092783;28;20020;-47
2021/05/03 08:07:48;;;;;;;2.20;1.05;;;20.20;57.10;;;;;;5092847;28;20404;-42
2021/05/03 08:10:14;;;;;;;1.95;0.75;;;20.40;56.20;;;;;;5077288;28;20104;-43
2021/05/03 08:12:39;;;;;;;2.35;0.80;;;19.70;56.70;;;;;;5053592;28;20484;-44
2021/05/03 08:15:14;;;;;;;1.23;0.77;;;20.00;56.00;;;;;;5072456;28;20068;-41
2021/05/03 08:17:42;;;;;;;2.17;0.70;;;20.90;55.10;;;;;;5072624;28;20078;-41
2021/05/03 08:20:08;;;;;;;1.38;0.65;;;21.00;55.70;;;;;;5072077;28;20082;-41
2021/05/03 08:22:33;;;;;;;1.50;0.82;;;20.80;56.50;;;;;;5072514;28;20107;-41
2021/05/03 08:24:59;;;;;;;3.05;1.10;;;20.20;56.60;;;;;;5072121;28;20060;-43
2021/05/03 08:27:25;;;;;;;2.50;0.80;;;20.40;55.70;;;;;;5071638;28;20035;-41
2021/05/03 08:29:51;;;;;;;1.13;0.93;;;21.30;54.10;;;;;;5072400;28;20503;-41
2021/05/03 08:32:16;;;;;;;1.88;0.90;;;22.00;52.50;;;;;;5072327;28;20483;-41
2021/05/03 08:34:42;;;;;;;3.58;1.00;;;22.40;52.50;;;;;;5072203;28;20032;-41
2021/05/03 08:37:07;;;;;;;3.67;0.98;;;21.90;52.40;;;;;;5072314;28;20025;-42
2021/05/03 08:39:33;;;;;;;1.38;0.90;;;22.80;51.40;;;;;;5072070;28;20050;-41
2021/05/03 08:42:00;;;;;;;1.45;0.70;;;22.20;51.50;;;;;;5072237;28;20036;-41
2021/05/03 08:44:27;;;;;;;1.50;0.88;;;20.90;51.90;;;;;;5071183;28;20023;-41
2021/05/03 08:46:54;;;;;;;1.77;0.70;;;19.70;52.90;;;;;;5073000;28;20055;-41
2021/05/03 08:49:30;;;;;;;2.13;1.00;;;18.60;54.30;;;;;;5075946;28;20467;-41
2021/05/03 08:56:50;;;;;;;0.80;0.60;;;16.90;55.70;;;;;;5096510;28;20028;-41
2021/05/03 08:59:16;;;;;;;1.67;0.88;;;16.90;55.30;;;;;;5095077;28;20390;-39
2021/05/03 09:01:47;;;;;;;2.95;0.85;;;17.10;55.30;;;;;;5078359;28;20028;-39
2021/05/03 09:04:17;;;;;;;2.67;1.15;;;17.10;54.70;;;;;;5095941;28;20051;-39
2021/05/03 09:07:18;;;;;;;1.73;0.77;;;17.10;53.70;;;;;;5096857;28;20020;-38
2021/05/03 09:09:49;;;;;;;1.00;0.50;;;17.00;52.00;;;;;;5003242;28;20037;-39
2021/05/03 09:12:17;;;;;;;2.33;1.15;;;17.00;54.20;;;;;;5061390;28;20434;-41
2021/05/03 09:14:54;;;;;;;2.08;0.80;;;17.30;53.90;;;;;;5075265;28;20032;-40
2021/05/03 09:17:37;;;;;;;1.30;1.02;;;18.10;53.00;;;;;;5075531;28;20488;-41
2021/05/03 09:20:06;;;;;;;2.60;0.80;;;18.40;50.10;;;;;;5075303;28;20044;-42
2021/05/03 09:23:00;;;;;;;2.67;0.70;;;18.20;52.20;;;;;;5075614;28;20025;-40
2021/05/03 09:25:34;;;;;;;1.35;0.95;;;18.20;52.50;;;;;;5074827;28;20575;-43
2021/05/03 09:28:22;;;;;;;0.70;0.70;;;18.20;52.60;;;;;;5074621;28;20020;-41
2021/05/03 09:30:59;;;;;;;0.88;0.50;;;18.20;51.10;;;;;;5075337;28;20021;-41
2021/05/03 09:33:27;;;;;;;2.30;0.65;;;18.20;51.60;;;;;;5075292;28;20021;-40
2021/05/03 09:35:57;;;;;;;1.25;0.60;;;18.90;51.30;;;;;;5074988;28;20028;-42
2021/05/03 09:38:46;;;;;;;1.95;0.77;;;19.60;49.40;;;;;;5075051;28;20021;-41
2021/05/03 09:41:15;;;;;;;1.17;1.00;;;19.80;46.40;;;;;;5065066;28;20125;-41
2021/05/03 09:43:43;;;;;;;0.88;0.70;;;20.50;48.30;;;;;;5074311;28;20016;-44
2021/05/03 09:46:24;;;;;;;2.05;0.82;;;21.10;47.10;;;;;;5074677;28;20108;-42
2021/05/03 09:48:49;;;;;;;1.73;0.70;;;20.30;45.70;;;;;;5075070;28;20344;-40
2021/05/03 09:51:45;;;;;;;1.02;0.50;;;19.30;48.30;;;;;;5081999;28;20031;-41
2021/05/03 09:54:13;;;;;;;0.80;0.60;;;19.20;47.80;;;;;;5095113;28;20067;-40
2021/05/03 09:56:52;;;;;;;1.40;0.63;;;18.80;49.60;;;;;;5095345;28;20024;-41
2021/05/03 09:59:39;;;;;;;1.92;0.63;;;18.50;48.70;;;;;;5093030;28;20028;-40
2021/05/03 10:02:15;;;;;;;1.42;0.70;;;17.90;49.90;;;;;;5095196;28;20028;-41
2021/05/03 10:05:21;;;;;;;1.75;0.60;;;17.50;50.50;;;;;;5095075;28;20459;-42
2021/05/03 10:07:54;;;;;;;0.75;0.70;;;17.20;50.40;;;;;;5094975;28;20020;-41
2021/05/03 10:12:47;;;;;;;0.90;0.70;;;16.60;51.30;;;;;;5073738;28;20384;-42
2021/05/03 10:15:15;;;;;;;1.45;0.60;;;16.30;51.90;;;;;;5074382;28;20021;-41
2021/05/03 10:17:43;;;;;;;3.08;0.77;;;15.80;52.30;;;;;;5074306;28;20081;-40
2021/05/03 10:20:11;;;;;;;3.03;0.90;;;15.40;53.20;;;;;;5074406;28;20024;-41
2021/05/03 10:22:37;;;;;;;1.15;0.68;;;14.90;53.90;;;;;;5074321;28;20472;-42
2021/05/03 10:25:06;;;;;;;1.70;1.00;;;14.40;54.60;;;;;;5074359;28;20155;-42
2021/05/03 10:27:33;;;;;;;1.10;0.70;;;14.20;55.00;;;;;;5073485;28;20115;-40
2021/05/03 10:30:08;;;;;;;1.15;0.90;;;14.30;55.00;;;;;;5073979;28;20032;-43
2021/05/03 10:32:34;;;;;;;1.13;0.75;;;14.70;54.90;;;;;;5074228;28;20028;-42
2021/05/03 10:35:02;;;;;;;2.25;0.90;;;15.00;54.20;;;;;;5074193;28;20047;-41
2021/05/03 10:37:33;;;;;;;0.65;0.60;;;15.20;53.40;;;;;;5074034;28;20020;-41
2021/05/03 10:40:14;;;;;;;1.00;0.90;;;15.30;53.10;;;;;;5074074;28;20375;-42
2021/05/03 10:43:02;;;;;;;2.35;0.70;;;15.50;52.30;;;;;;5073000;28;20032;-41
2021/05/03 10:48:28;;;;;;;0.90;0.50;;;15.40;51.30;;;;;;5066553;28;20495;-42
2021/05/03 10:50:54;;;;;;;1.50;0.65;;;15.20;51.90;;;;;;5077462;28;20024;-40
2021/05/03 10:53:20;;;;;;;2.17;0.70;;;15.00;52.30;;;;;;5074671;28;20066;-40
2021/05/03 10:55:50;;;;;;;1.65;0.75;;;14.80;52.60;;;;;;5073488;28;20039;-41
2021/05/03 10:58:15;;;;;;;0.73;0.47;;;14.60;52.90;;;;;;5072527;28;20024;-40
2021/05/03 11:00:56;;;;;;;1.40;0.60;;;14.50;53.20;;;;;;5073438;28;20032;-40
2021/05/03 11:03:56;;;;;;;0.80;0.50;;;14.60;52.90;;;;;;5073216;28;20067;-40
2021/05/03 11:06:43;;;;;;;0.77;0.70;;;14.60;52.90;;;;;;5073078;28;20057;-42
2021/05/03 11:09:38;;;;;;;0.77;0.73;;;14.40;53.10;;;;;;5073148;28;20417;-43
2021/05/03 11:12:06;;;;;;;1.52;0.93;;;14.10;53.60;;;;;;5073346;28;20091;-43
2021/05/03 11:14:34;;;;;;;2.45;0.70;;;14.00;53.90;;;;;;5072107;28;20043;-41
2021/05/03 11:17:08;;;;;;;1.27;0.82;;;14.20;54.10;;;;;;5073250;28;20034;-41
2021/05/03 11:22:26;;;;;;;0.83;0.77;;;14.90;53.40;;;;;;5072829;28;20058;-41
2021/05/03 11:24:56;;;;;;;2.50;1.25;;;15.00;53.30;;;;;;5072788;28;20265;-41
2021/05/03 11:30:16;;;;;;;1.48;1.10;;;15.00;52.90;;;;;;5072808;28;20020;-43
2021/05/03 11:32:42;;;;;;;0.75;0.70;;;15.10;53.00;;;;;;5054759;28;20039;-43
2021/05/03 11:35:21;;;;;;;1.50;0.90;;;15.30;52.80;;;;;;5072769;28;20025;-42
2021/05/03 11:37:58;;;;;;;2.72;1.10;;;15.30;52.40;;;;;;5072683;28;20029;-41
2021/05/03 11:40:42;;;;;;;1.75;0.90;;;15.60;52.50;;;;;;5072380;28;20495;-42
2021/05/03 11:45:33;;;;;;;2.65;0.75;;;15.80;51.90;;;;;;5072415;28;20028;-40
2021/05/03 11:48:00;;;;;;;2.97;1.40;;;15.90;51.70;;;;;;5072535;28;20219;-41
2021/05/03 11:50:27;;;;;;;4.78;1.50;;;15.90;51.50;;;;;;5072233;28;20016;-41
2021/05/03 11:52:53;;;;;;;3.92;1.30;;;15.90;51.10;;;;;;5072429;28;20575;-41
2021/05/03 11:55:22;;;;;;;1.13;1.02;;;15.90;51.20;;;;;;5072298;28;20099;-41
2021/05/03 11:57:48;;;;;;;1.85;0.80;;;15.80;51.30;;;;;;5071448;28;20020;-41
2021/05/03 12:00:15;;;;;;;4.40;1.00;;;15.40;51.10;;;;;;5072236;28;20047;-41
2021/05/03 12:02:42;;;;;;;2.38;0.80;;;15.00;51.30;;;;;;5054349;28;20032;-40
2021/05/03 12:05:12;;;;;;;0.80;0.70;;;14.80;51.80;;;;;;5072363;28;20096;-41
2021/05/03 12:07:38;;;;;;;1.02;0.60;;;14.90;52.00;;;;;;5072213;28;20036;-41
2021/05/03 12:10:18;;;;;;;1.35;0.52;;;15.10;51.60;;;;;;5058537;28;20372;-42
2021/05/03 12:12:56;;;;;;;1.45;0.70;;;15.30;51.60;;;;;;5051301;28;20033;-41
2021/05/03 12:15:29;;;;;;;1.73;0.73;;;15.40;50.50;;;;;;5052138;28;20025;-41
2021/05/03 12:18:05;;;;;;;0.80;0.70;;;15.40;50.20;;;;;;5052188;28;20044;-40
2021/05/03 12:20:33;;;;;;;0.65;0.60;;;15.30;50.80;;;;;;5051884;28;20044;-40
2021/05/03 12:23:04;;;;;;;2.38;1.00;;;15.00;50.90;;;;;;5051595;28;20075;-41
2021/05/03 12:25:52;;;;;;;1.70;0.60;;;14.90;51.30;;;;;;5033836;28;20070;-41
2021/05/03 12:28:26;;;;;;;2.53;0.70;;;14.80;51.20;;;;;;5051215;28;20491;-40
2021/05/03 12:30:57;;;;;;;1.00;0.75;;;14.90;51.10;;;;;;5052006;28;20482;-41
2021/05/03 12:33:23;;;;;;;1.95;0.65;;;14.90;51.70;;;;;;5051778;28;20033;-40
2021/05/03 12:35:52;;;;;;;1.63;0.70;;;15.00;51.90;;;;;;5052025;28;20112;-40
2021/05/03 12:38:28;;;;;;;1.95;0.90;;;15.10;52.00;;;;;;5051863;28;20040;-42
2021/05/03 12:40:56;;;;;;;0.90;0.65;;;15.10;51.40;;;;;;5033260;28;20032;-41
2021/05/03 12:43:26;;;;;;;1.17;0.70;;;15.10;51.60;;;;;;5070236;28;20029;-42
2021/05/03 12:53:42;;;;;;;0.80;0.80;;;15.20;51.30;;;;;;5091723;28;20448;-40
2021/05/03 13:04:06;;;;;;;0.80;0.63;;;15.80;50.30;;;;;;5071395;28;20122;-41
2021/05/03 13:06:45;;;;;;;1.52;0.57;;;15.80;50.60;;;;;;5071127;28;20028;-41
2021/05/03 13:09:31;;;;;;;0.88;0.60;;;15.80;51.10;;;;;;5065276;28;20519;-40
2021/05/03 13:22:34;;;;;;;1.17;0.65;;;15.30;50.30;;;;;;5051569;28;20040;-41
2021/05/03 13:29:15;;;;;;;1.80;0.60;;;14.30;52.10;;;;;;5067076;28;20384;-42
2021/05/03 13:31:46;;;;;;;2.25;1.00;;;14.30;52.60;;;;;;5050912;28;20024;-43
2021/05/03 13:34:13;;;;;;;2.72;0.60;;;14.20;52.90;;;;;;5072680;28;20021;-41
2021/05/03 13:36:40;;;;;;;1.48;0.80;;;14.00;53.20;;;;;;5076293;28;20055;-43
2021/05/03 13:39:10;;;;;;;1.25;0.70;;;13.80;53.40;;;;;;5074664;28;20029;-41
2021/05/03 13:41:38;;;;;;;1.08;0.70;;;13.60;53.70;;;;;;5074534;28;20383;-41
2021/05/03 13:44:04;;;;;;;1.35;0.88;;;13.40;54.10;;;;;;5073710;28;20409;-41
2021/05/03 13:46:30;;;;;;;2.00;0.80;;;13.40;54.40;;;;;;5074346;28;20515;-41
2021/05/03 13:48:56;;;;;;;1.98;0.85;;;13.30;55.00;;;;;;5074616;28;20031;-41
2021/05/03 13:51:23;;;;;;;1.50;1.15;;;13.30;55.10;;;;;;5082595;28;20016;-41
2021/05/03 13:53:49;;;;;;;2.80;0.75;;;13.20;55.50;;;;;;5083721;28;20094;-42
2021/05/03 13:56:15;;;;;;;0.85;0.60;;;13.20;55.80;;;;;;5074523;28;20024;-41
2021/05/03 13:58:41;;;;;;;1.27;0.57;;;13.00;56.00;;;;;;5073252;28;20479;-42
2021/05/03 14:01:07;;;;;;;3.05;1.48;;;12.90;56.40;;;;;;5074582;28;20052;-42
2021/05/03 14:03:32;;;;;;;1.65;1.00;;;12.70;57.10;;;;;;5072657;28;20016;-44
2021/05/03 14:05:58;;;;;;;3.38;1.13;;;12.50;57.60;;;;;;5073823;28;20032;-40